Terminal Aerodrome Forecast
Issued by NWS Sterling, VA

Current Version | Previous Version | Graphics & Text | Print | Product List | Glossary On
Versions: 1 2 3 4 5 6 7 8 9 10 11 12 13 14 15 16 17 18 19 20 21 22
000
FTUS41 KLWX 201445 AAA
TAFIAD
TAF AMD
KIAD 201445Z 2015/2118 33006KT P6SM SCT200
     FM202100 17004KT P6SM BKN090
     FM210300 14004KT 6SM -SHRA BR OVC060
     FM210600 VRB03KT 4SM -SHRA BR OVC050
     FM210900 00000KT 5SM BR OVC015
     FM211500 34006KT P6SM BKN025=

USA.gov is the U.S. government's official web portal to all federal, state and local government web resources and services.